Time;durP1;ratioP1;P1;durP2;ratioP2;P2;SDS_P1;SDS_P2;PMS_P1;PMS_P2;Temp;Humidity;BMP_temperature;BMP_pressure;BME280_temperature;BME280_humidity;BME280_pressure;Samples;Min_cycle;Max_cycle;Signal;HPM_P1;HPM_P2
2021/11/25 00:02:12;;;;;;;;;16.00;16.00;;;;;;;;4851670;29;47582;-84
2021/11/25 00:04:40;;;;;;;;;19.33;19.33;;;;;;;;4866832;29;45450;-83
2021/11/25 00:07:06;;;;;;;;;17.67;15.67;;;;;;;;4866416;29;45392;-84
2021/11/25 00:09:31;;;;;;;;;19.00;19.00;;;;;;;;4851298;29;45409;-84
2021/11/25 00:11:56;;;;;;;;;20.67;19.33;;;;;;;;4850801;29;48167;-84
2021/11/25 00:14:21;;;;;;;;;19.67;17.33;;;;;;;;4850774;29;45420;-84
2021/11/25 00:16:47;;;;;;;;;23.33;22.00;;;;;;;;4866562;29;45364;-84
2021/11/25 00:19:12;;;;;;;;;23.00;22.67;;;;;;;;4852049;29;45365;-83
2021/11/25 00:21:37;;;;;;;;;23.00;21.33;;;;;;;;4868152;29;45756;-83
2021/11/25 00:24:05;;;;;;;;;24.67;21.67;;;;;;;;4869635;29;45672;-84
2021/11/25 00:26:30;;;;;;;;;24.33;23.33;;;;;;;;4852263;29;45458;-84
2021/11/25 00:28:56;;;;;;;;;22.33;20.33;;;;;;;;4867779;29;45527;-84
2021/11/25 00:31:21;;;;;;;;;22.00;21.33;;;;;;;;4852354;29;47837;-84
2021/11/25 00:33:46;;;;;;;;;26.00;20.00;;;;;;;;4852037;29;45420;-84
2021/11/25 00:36:11;;;;;;;;;30.00;25.67;;;;;;;;4869590;29;44892;-85
2021/11/25 00:38:37;;;;;;;;;25.33;21.67;;;;;;;;4853212;29;45407;-84
2021/11/25 00:41:02;;;;;;;;;22.67;21.67;;;;;;;;4871537;29;46200;-85
2021/11/25 00:43:27;;;;;;;;;24.67;22.67;;;;;;;;4868297;29;45948;-85
2021/11/25 00:45:53;;;;;;;;;24.33;24.33;;;;;;;;4852489;29;45449;-83
2021/11/25 00:48:18;;;;;;;;;27.67;26.00;;;;;;;;4870980;29;45382;-84
2021/11/25 00:50:44;;;;;;;;;22.33;22.00;;;;;;;;4870117;29;45407;-83
2021/11/25 00:53:10;;;;;;;;;27.67;25.00;;;;;;;;4869447;29;44797;-84
2021/11/25 00:55:36;;;;;;;;;23.67;22.67;;;;;;;;4869487;29;45256;-84
2021/11/25 01:01:04;;;;;;;;;26.33;24.00;;;;;;;;4869837;29;45427;-83
2021/11/25 01:03:29;;;;;;;;;23.33;21.00;;;;;;;;4849473;29;45534;-83
2021/11/25 01:05:55;;;;;;;;;23.67;22.00;;;;;;;;4848727;29;45287;-84
2021/11/25 01:08:20;;;;;;;;;28.33;26.67;;;;;;;;4849862;29;45946;-83
2021/11/25 01:10:45;;;;;;;;;22.00;21.00;;;;;;;;4870430;29;45794;-83
2021/11/25 01:13:11;;;;;;;;;26.67;22.00;;;;;;;;4884867;28;45393;-83
2021/11/25 01:15:37;;;;;;;;;22.67;22.33;;;;;;;;4867259;29;45880;-83
2021/11/25 01:18:10;;;;;;;;;21.33;17.33;;;;;;;;4868849;29;45902;-83
2021/11/25 01:20:37;;;;;;;;;27.67;24.33;;;;;;;;4868286;29;47286;-84
2021/11/25 01:23:06;;;;;;;;;20.67;20.00;;;;;;;;4884173;29;45459;-83
2021/11/25 01:25:32;;;;;;;;;25.00;19.67;;;;;;;;4869127;29;45443;-83
2021/11/25 01:27:57;;;;;;;;;22.33;20.00;;;;;;;;4868020;29;45505;-83
2021/11/25 01:30:23;;;;;;;;;20.33;18.67;;;;;;;;4867381;29;47102;-84
2021/11/25 01:32:48;;;;;;;;;11.33;10.00;;;;;;;;4867958;29;45451;-83
2021/11/25 01:35:16;;;;;;;;;22.33;20.33;;;;;;;;4885340;29;45392;-84
2021/11/25 01:37:42;;;;;;;;;23.00;20.33;;;;;;;;4868618;28;45424;-84
2021/11/25 01:40:11;;;;;;;;;22.00;17.67;;;;;;;;4867266;29;46099;-83
2021/11/25 01:42:37;;;;;;;;;18.67;16.00;;;;;;;;4883930;29;45593;-84
2021/11/25 01:45:04;;;;;;;;;20.67;19.00;;;;;;;;4871666;29;45920;-84
2021/11/25 01:47:29;;;;;;;;;25.00;21.67;;;;;;;;4887264;29;45632;-83
2021/11/25 01:49:54;;;;;;;;;22.00;20.00;;;;;;;;4871550;29;46652;-83
2021/11/25 01:52:19;;;;;;;;;21.33;17.00;;;;;;;;4889103;29;45180;-83
2021/11/25 01:54:45;;;;;;;;;25.33;21.33;;;;;;;;4889132;28;45359;-83
2021/11/25 01:57:10;;;;;;;;;17.67;16.67;;;;;;;;4888235;29;45457;-84
2021/11/25 01:59:36;;;;;;;;;20.00;18.67;;;;;;;;4870561;29;47285;-84
2021/11/25 02:02:02;;;;;;;;;25.33;22.00;;;;;;;;4889894;28;45505;-83
2021/11/25 02:04:28;;;;;;;;;19.33;19.33;;;;;;;;4890627;29;45286;-83
2021/11/25 02:06:53;;;;;;;;;17.67;17.67;;;;;;;;4873826;29;45474;-82
2021/11/25 02:09:18;;;;;;;;;23.67;19.33;;;;;;;;4889910;29;45490;-83
2021/11/25 02:11:44;;;;;;;;;18.33;18.33;;;;;;;;4859620;29;45707;-83
2021/11/25 02:14:09;;;;;;;;;16.00;16.00;;;;;;;;4871170;29;45910;-83
2021/11/25 02:16:36;;;;;;;;;20.33;16.33;;;;;;;;4855821;29;45405;-83
2021/11/25 02:19:02;;;;;;;;;16.33;15.00;;;;;;;;4873374;29;46081;-82
2021/11/25 02:21:28;;;;;;;;;20.67;18.33;;;;;;;;4857175;29;45482;-83
2021/11/25 02:23:53;;;;;;;;;16.33;15.67;;;;;;;;4856689;29;45848;-83
2021/11/25 02:26:18;;;;;;;;;19.67;17.33;;;;;;;;4872147;29;45463;-83
2021/11/25 02:28:44;;;;;;;;;13.67;13.67;;;;;;;;4856695;29;46706;-83
2021/11/25 02:31:10;;;;;;;;;14.33;13.33;;;;;;;;4856280;29;45414;-83
2021/11/25 02:33:39;;;;;;;;;8.67;6.00;;;;;;;;4873980;29;45292;-83
2021/11/25 02:36:05;;;;;;;;;16.33;16.33;;;;;;;;4857140;29;45466;-83
2021/11/25 02:38:30;;;;;;;;;16.33;16.33;;;;;;;;4872948;29;46168;-83
2021/11/25 02:40:56;;;;;;;;;12.00;12.00;;;;;;;;4854835;29;45437;-82
2021/11/25 02:43:26;;;;;;;;;16.33;15.33;;;;;;;;4873092;29;45383;-83
2021/11/25 02:45:56;;;;;;;;;16.67;16.67;;;;;;;;4851109;29;45350;-83
2021/11/25 02:48:23;;;;;;;;;14.00;13.33;;;;;;;;4837504;29;46703;-83
2021/11/25 02:50:49;;;;;;;;;14.67;13.67;;;;;;;;4837302;29;45479;-83
2021/11/25 02:53:21;;;;;;;;;12.00;10.67;;;;;;;;4852571;29;45447;-82
2021/11/25 02:55:47;;;;;;;;;15.33;13.00;;;;;;;;4835237;29;45433;-82
2021/11/25 02:58:12;;;;;;;;;17.00;17.00;;;;;;;;4836683;29;47207;-83
2021/11/25 03:00:39;;;;;;;;;15.67;15.67;;;;;;;;4851923;29;45403;-82
2021/11/25 03:03:08;;;;;;;;;21.67;18.67;;;;;;;;4848191;29;45445;-82
2021/11/25 03:05:35;;;;;;;;;20.00;20.00;;;;;;;;4850151;29;45349;-82
2021/11/25 03:08:04;;;;;;;;;16.33;16.33;;;;;;;;4833698;29;46907;-84
2021/11/25 03:10:34;;;;;;;;;17.67;17.00;;;;;;;;4834405;29;45894;-84
2021/11/25 03:12:59;;;;;;;;;23.00;17.00;;;;;;;;4847707;29;45503;-84
2021/11/25 03:15:32;;;;;;;;;24.33;19.67;;;;;;;;4832039;29;45539;-84
2021/11/25 03:17:57;;;;;;;;;23.33;20.33;;;;;;;;4833529;29;47253;-84
2021/11/25 03:20:23;;;;;;;;;32.33;29.33;;;;;;;;4836083;29;45602;-84
2021/11/25 03:22:48;;;;;;;;;17.00;15.67;;;;;;;;4836556;29;44926;-84
2021/11/25 03:25:14;;;;;;;;;19.67;19.33;;;;;;;;4852444;29;45002;-84
2021/11/25 03:27:40;;;;;;;;;25.00;21.00;;;;;;;;4852654;29;46347;-84
2021/11/25 03:30:08;;;;;;;;;24.33;20.00;;;;;;;;4863991;29;45461;-84
2021/11/25 03:32:34;;;;;;;;;25.67;18.33;;;;;;;;4853365;29;45306;-84
2021/11/25 03:34:59;;;;;;;;;19.67;18.33;;;;;;;;4850311;29;45343;-84
2021/11/25 03:37:26;;;;;;;;;19.33;19.33;;;;;;;;4868975;29;45278;-84
2021/11/25 03:39:51;;;;;;;;;18.67;18.67;;;;;;;;4869953;29;45344;-84
2021/11/25 03:42:16;;;;;;;;;26.33;20.67;;;;;;;;4869713;29;45411;-84
2021/11/25 03:44:44;;;;;;;;;22.00;17.00;;;;;;;;4869464;29;45463;-84
2021/11/25 03:47:10;;;;;;;;;20.33;20.33;;;;;;;;4867987;29;45491;-84
2021/11/25 03:52:44;;;;;;;;;30.67;21.33;;;;;;;;4870654;29;45346;-83
2021/11/25 03:55:11;;;;;;;;;22.67;22.67;;;;;;;;4869440;29;45420;-84
2021/11/25 03:57:36;;;;;;;;;30.67;24.00;;;;;;;;4852763;29;46959;-84
2021/11/25 04:00:04;;;;;;;;;26.00;23.67;;;;;;;;4869777;29;45375;-85
2021/11/25 04:02:29;;;;;;;;;26.00;21.33;;;;;;;;4852567;29;45467;-84
2021/11/25 04:04:55;;;;;;;;;28.33;23.00;;;;;;;;4853885;29;45053;-84
2021/11/25 04:07:20;;;;;;;;;25.67;25.33;;;;;;;;4852493;29;46900;-83
2021/11/25 04:09:48;;;;;;;;;33.00;27.33;;;;;;;;4853785;29;45438;-84
2021/11/25 04:12:14;;;;;;;;;28.67;26.00;;;;;;;;4853761;29;45800;-84
2021/11/25 04:14:40;;;;;;;;;29.67;27.67;;;;;;;;4869315;29;45359;-83
2021/11/25 04:17:05;;;;;;;;;32.00;28.33;;;;;;;;4851137;29;46967;-84
2021/11/25 04:19:30;;;;;;;;;26.00;22.33;;;;;;;;4864203;29;45385;-84
2021/11/25 04:21:56;;;;;;;;;37.67;33.67;;;;;;;;4864697;29;45198;-84
2021/11/25 04:24:21;;;;;;;;;38.00;33.00;;;;;;;;4849132;29;45491;-84
2021/11/25 04:26:47;;;;;;;;;34.00;30.33;;;;;;;;4866436;29;45516;-83
2021/11/25 04:29:14;;;;;;;;;33.33;32.00;;;;;;;;4864868;29;45567;-84
2021/11/25 04:37:09;;;;;;;;;31.33;28.33;;;;;;;;4869356;29;44997;-83
2021/11/25 04:39:34;;;;;;;;;41.67;30.00;;;;;;;;4870327;29;45472;-83
2021/11/25 04:42:00;;;;;;;;;31.67;28.00;;;;;;;;4866599;29;45589;-85
2021/11/25 04:44:25;;;;;;;;;39.00;32.33;;;;;;;;4870165;29;45478;-85
2021/11/25 04:49:53;;;;;;;;;31.00;29.33;;;;;;;;4865549;29;44925;-83
2021/11/25 04:52:19;;;;;;;;;28.33;27.67;;;;;;;;4865573;29;45572;-85
2021/11/25 04:54:44;;;;;;;;;40.67;33.67;;;;;;;;4864401;29;45696;-85
2021/11/25 04:57:09;;;;;;;;;41.00;37.33;;;;;;;;4863724;29;47179;-85
2021/11/25 04:59:35;;;;;;;;;38.33;35.67;;;;;;;;4865062;29;45529;-85
2021/11/25 05:02:01;;;;;;;;;45.33;39.67;;;;;;;;4866478;29;45468;-83
2021/11/25 05:04:26;;;;;;;;;49.00;35.67;;;;;;;;4868339;29;45461;-84
2021/11/25 05:06:51;;;;;;;;;43.33;37.67;;;;;;;;4870339;29;46204;-85
2021/11/25 05:09:23;;;;;;;;;48.00;38.00;;;;;;;;4867285;29;45404;-84
2021/11/25 05:11:49;;;;;;;;;42.33;38.33;;;;;;;;4852661;29;45419;-85
2021/11/25 05:14:14;;;;;;;;;47.33;41.33;;;;;;;;4852061;29;45038;-84
2021/11/25 05:16:40;;;;;;;;;49.00;41.33;;;;;;;;4848601;29;46899;-84
2021/11/25 05:19:05;;;;;;;;;39.00;37.67;;;;;;;;4849189;29;45823;-84
2021/11/25 05:21:30;;;;;;;;;47.00;40.33;;;;;;;;4868086;29;45371;-84
2021/11/25 05:24:00;;;;;;;;;57.75;47.25;;;;;;;;4849751;29;45683;-84
2021/11/25 05:26:25;;;;;;;;;50.00;44.25;;;;;;;;4850799;29;46865;-84
2021/11/25 05:28:51;;;;;;;;;52.67;41.00;;;;;;;;4849773;29;45192;-84
2021/11/25 05:31:16;;;;;;;;;48.00;41.67;;;;;;;;4851555;29;44868;-83
2021/11/25 05:33:41;;;;;;;;;48.67;40.67;;;;;;;;4852319;29;45578;-84
2021/11/25 05:36:07;;;;;;;;;50.33;44.00;;;;;;;;4853080;29;47356;-84
2021/11/25 05:38:32;;;;;;;;;35.33;30.33;;;;;;;;4852161;29;45362;-84
2021/11/25 05:40:57;;;;;;;;;54.67;45.00;;;;;;;;4851122;29;45757;-84
2021/11/25 05:43:24;;;;;;;;;51.67;41.00;;;;;;;;4851488;29;45365;-84
2021/11/25 05:45:51;;;;;;;;;57.75;45.25;;;;;;;;4851598;29;46924;-84
2021/11/25 05:48:16;;;;;;;;;58.50;45.00;;;;;;;;4852024;29;44939;-84
2021/11/25 05:50:42;;;;;;;;;56.33;44.33;;;;;;;;4852573;29;45480;-84
2021/11/25 05:53:08;;;;;;;;;49.75;42.75;;;;;;;;4869435;29;45754;-85
2021/11/25 05:55:33;;;;;;;;;45.75;40.50;;;;;;;;4852846;29;47062;-84
2021/11/25 05:57:59;;;;;;;;;55.25;44.75;;;;;;;;4869849;29;45365;-84
2021/11/25 06:00:24;;;;;;;;;55.00;43.75;;;;;;;;4852378;29;45359;-87
2021/11/25 06:02:51;;;;;;;;;52.50;42.00;;;;;;;;4852818;29;45574;-84
2021/11/25 06:05:22;;;;;;;;;49.75;44.00;;;;;;;;4852282;29;46954;-84
2021/11/25 06:07:47;;;;;;;;;47.25;39.75;;;;;;;;4869832;29;46037;-84
2021/11/25 06:10:17;;;;;;;;;44.33;39.67;;;;;;;;4852527;29;45491;-84
2021/11/25 06:12:52;;;;;;;;;52.50;42.50;;;;;;;;4852600;29;45532;-85
2021/11/25 06:15:17;;;;;;;;;64.75;47.75;;;;;;;;4867006;29;46739;-85
2021/11/25 06:17:43;;;;;;;;;52.75;44.50;;;;;;;;4851935;29;45255;-84
2021/11/25 06:20:12;;;;;;;;;52.25;43.25;;;;;;;;4867345;29;45363;-84
2021/11/25 06:22:38;;;;;;;;;55.00;43.25;;;;;;;;4852160;29;45338;-84
2021/11/25 06:25:04;;;;;;;;;59.00;46.25;;;;;;;;4851651;29;47095;-85
2021/11/25 06:27:29;;;;;;;;;53.75;43.75;;;;;;;;4852814;29;44880;-85
2021/11/25 06:29:57;;;;;;;;;58.25;45.50;;;;;;;;4870791;29;45370;-84
2021/11/25 06:32:23;;;;;;;;;63.00;46.25;;;;;;;;4869964;29;45354;-85
2021/11/25 06:34:48;;;;;;;;;55.75;44.00;;;;;;;;4854014;29;48127;-85
2021/11/25 06:37:13;;;;;;;;;45.75;42.25;;;;;;;;4856122;29;45906;-85
2021/11/25 06:39:39;;;;;;;;;54.25;45.25;;;;;;;;4855629;29;45553;-84
2021/11/25 06:42:04;;;;;;;;;59.50;45.25;;;;;;;;4855243;29;45859;-84
2021/11/25 06:44:32;;;;;;;;;51.67;41.33;;;;;;;;4868296;29;45708;-85
2021/11/25 06:47:01;;;;;;;;;48.00;40.75;;;;;;;;4854000;29;45440;-84
2021/11/25 06:49:26;;;;;;;;;49.50;43.25;;;;;;;;4853697;29;45471;-84
2021/11/25 06:51:51;;;;;;;;;62.00;49.25;;;;;;;;4853261;29;45245;-84
2021/11/25 06:54:17;;;;;;;;;59.75;46.50;;;;;;;;4854325;29;46364;-86
2021/11/25 06:56:42;;;;;;;;;60.00;48.00;;;;;;;;4855656;29;44734;-86
2021/11/25 06:59:15;;;;;;;;;59.00;48.00;;;;;;;;4837465;29;45603;-85
2021/11/25 07:01:40;;;;;;;;;57.50;46.25;;;;;;;;4836815;29;45418;-86
2021/11/25 07:04:13;;;;;;;;;59.75;46.75;;;;;;;;4851230;29;46105;-85
2021/11/25 07:06:38;;;;;;;;;52.00;44.00;;;;;;;;4835767;29;45010;-85
2021/11/25 07:09:03;;;;;;;;;49.00;43.50;;;;;;;;4851671;29;45485;-85
2021/11/25 07:11:32;;;;;;;;;59.00;46.50;;;;;;;;4842918;29;45347;-85
2021/11/25 07:17:01;;;;;;;;;52.50;43.00;;;;;;;;4874195;29;45413;-85
2021/11/25 07:19:28;;;;;;;;;59.75;46.00;;;;;;;;4874205;29;45275;-84
2021/11/25 07:21:53;;;;;;;;;62.25;49.75;;;;;;;;4857595;29;45403;-85
2021/11/25 07:24:18;;;;;;;;;60.00;46.00;;;;;;;;4857244;29;47007;-84
2021/11/25 07:26:44;;;;;;;;;56.50;42.50;;;;;;;;4857780;29;45822;-84
2021/11/25 07:29:10;;;;;;;;;53.00;45.00;;;;;;;;4856444;29;44925;-86
2021/11/25 07:31:49;;;;;;;;;;;;;;;;;;;;;
2021/11/25 07:34:14;;;;;;;;;53.50;42.25;;;;;;;;4890327;29;74820;-86
2021/11/25 07:36:40;;;;;;;;;44.50;40.25;;;;;;;;4895285;29;45409;-86
2021/11/25 07:39:05;;;;;;;;;53.75;46.00;;;;;;;;4892791;28;44866;-86
2021/11/25 07:41:33;;;;;;;;;51.75;43.25;;;;;;;;4876548;29;44862;-86
2021/11/25 07:43:59;;;;;;;;;54.50;45.00;;;;;;;;4877551;29;46753;-87
2021/11/25 07:46:24;;;;;;;;;48.75;41.25;;;;;;;;4876142;29;45395;-85
2021/11/25 07:49:00;;;;;;;;;62.00;48.75;;;;;;;;4874364;29;45347;-86
2021/11/25 07:51:26;;;;;;;;;59.50;49.75;;;;;;;;4874107;29;45526;-87
2021/11/25 07:56:57;;;;;;;;;56.75;46.00;;;;;;;;4890509;29;45381;-86
2021/11/25 07:59:34;;;;;;;;;58.00;46.00;;;;;;;;4873039;29;45466;-86
2021/11/25 08:02:06;;;;;;;;;52.75;45.25;;;;;;;;4875329;29;45311;-87
2021/11/25 08:04:37;;;;;;;;;63.50;51.50;;;;;;;;4891741;29;45395;-86
2021/11/25 08:07:03;;;;;;;;;57.75;47.25;;;;;;;;4874461;29;44820;-86
2021/11/25 08:09:28;;;;;;;;;59.75;47.25;;;;;;;;4873940;29;45391;-86
2021/11/25 08:12:03;;;;;;;;;55.50;44.50;;;;;;;;4883631;29;45811;-85
2021/11/25 08:14:29;;;;;;;;;56.75;46.25;;;;;;;;4854528;29;45331;-85
2021/11/25 08:16:58;;;;;;;;;62.75;50.75;;;;;;;;4873333;29;45596;-85
2021/11/25 08:19:23;;;;;;;;;56.25;43.25;;;;;;;;4855171;29;45377;-85
2021/11/25 08:22:21;;;;;;;;;55.25;46.50;;;;;;;;4855497;29;45351;-84
2021/11/25 08:25:05;;;;;;;;;57.75;46.50;;;;;;;;4857005;29;45253;-85
2021/11/25 08:27:46;;;;;;;;;55.75;43.25;;;;;;;;4857389;29;45468;-85
2021/11/25 08:57:37;;;;;;;;;64.00;51.75;;;;;;;;4776109;29;44987;-86
2021/11/25 09:00:33;;;;;;;;;53.50;45.25;;;;;;;;4813692;29;45478;-84
2021/11/25 09:03:07;;;;;;;;;52.75;43.25;;;;;;;;4798890;29;44839;-85
2021/11/25 09:14:53;;;;;;;;;62.25;49.75;;;;;;;;4801942;29;45506;-87
2021/11/25 09:17:19;;;;;;;;;60.75;49.75;;;;;;;;4803922;29;45392;-87
2021/11/25 09:19:44;;;;;;;;;61.50;50.00;;;;;;;;4834065;29;45561;-83
2021/11/25 09:22:24;;;;;;;;;65.50;53.25;;;;;;;;4828740;29;45269;-83
2021/11/25 09:54:56;;;;;;;;;60.50;49.50;;;;;;;;1250377;23;46111;-82
2021/11/25 09:57:46;;;;;;;;;63.75;52.50;;;;;;;;4900625;29;45651;-82
2021/11/25 10:00:14;;;;;;;;;65.75;50.25;;;;;;;;4866255;29;45490;-83
2021/11/25 10:21:18;;;;;;;;;59.50;50.25;;;;;;;;4886407;29;45390;-83
2021/11/25 10:24:28;;;;;;;;;67.50;54.50;;;;;;;;4894284;29;45541;-82
2021/11/25 10:26:59;;;;;;;;;66.50;54.25;;;;;;;;4863761;29;45358;-84
2021/11/25 10:34:56;;;;;;;;;63.75;50.50;;;;;;;;5579948;23;46864;-85
2021/11/25 10:38:19;;;;;;;;;57.50;47.00;;;;;;;;4900601;29;45444;-84
2021/11/25 10:40:44;;;;;;;;;62.25;51.25;;;;;;;;4918110;29;45499;-82
2021/11/25 10:43:49;;;;;;;;;66.00;49.75;;;;;;;;4916710;29;45422;-84
2021/11/25 10:55:23;;;;;;;;;58.75;48.00;;;;;;;;4915154;29;45477;-82
2021/11/25 10:57:54;;;;;;;;;60.00;50.50;;;;;;;;4904529;29;45796;-83
2021/11/25 11:00:36;;;;;;;;;60.00;48.75;;;;;;;;4879404;29;45514;-83
2021/11/25 11:03:09;;;;;;;;;62.25;50.50;;;;;;;;4882248;29;46940;-83
2021/11/25 11:15:50;;;;;;;;;61.75;49.75;;;;;;;;4836318;29;45448;-85
2021/11/25 11:21:48;;;;;;;;;58.50;48.75;;;;;;;;4854263;29;44866;-83
2021/11/25 11:27:16;;;;;;;;;60.75;45.25;;;;;;;;4854816;29;45577;-83
2021/11/25 11:30:00;;;;;;;;;62.50;46.75;;;;;;;;4857518;29;45324;-84
2021/11/25 11:58:01;;;;;;;;;67.00;51.00;;;;;;;;4895618;29;45573;-84
2021/11/25 12:00:27;;;;;;;;;59.75;50.75;;;;;;;;4857561;29;45505;-84
2021/11/25 12:03:24;;;;;;;;;;;;;;;;;;;;;
2021/11/25 12:13:55;;;;;;;;;69.50;50.00;;;;;;;;4550006;23;11413484;-85
2021/11/25 12:16:20;;;;;;;;;63.00;52.25;;;;;;;;4880355;29;45096;-83
2021/11/25 12:18:52;;;;;;;;;19.25;10.75;;;;;;;;4879888;29;45207;-85
2021/11/25 12:21:29;;;;;;;;;52.25;44.25;;;;;;;;4878571;29;45360;-83
2021/11/25 12:24:10;;;;;;;;;59.25;44.25;;;;;;;;4861923;29;45156;-83
2021/11/25 12:30:17;;;;;;;;;62.00;48.75;;;;;;;;4854287;29;45499;-85
2021/11/25 12:52:10;;;;;;;;;55.50;44.75;;;;;;;;4735318;23;45379;-85
2021/11/25 12:54:40;;;;;;;;;50.50;43.50;;;;;;;;4888523;29;44779;-82
2021/11/25 13:03:52;;;;;;;;;58.75;45.50;;;;;;;;4918143;29;45365;-86
2021/11/25 13:19:05;;;;;;;;;51.25;41.25;;;;;;;;4900780;29;44982;-85
2021/11/25 13:21:33;;;;;;;;;60.50;49.00;;;;;;;;4814178;29;45730;-83
2021/11/25 13:27:22;;;;;;;;;63.50;49.00;;;;;;;;4818712;29;45446;-86
2021/11/25 13:29:52;;;;;;;;;56.00;48.25;;;;;;;;4801866;29;44759;-83
2021/11/25 13:32:23;;;;;;;;;61.50;50.50;;;;;;;;4874274;29;45551;-85
2021/11/25 13:34:57;;;;;;;;;65.25;49.75;;;;;;;;4869314;29;45757;-82
2021/11/25 13:37:31;;;;;;;;;62.75;52.25;;;;;;;;4879134;29;44779;-84
2021/11/25 13:40:48;;;;;;;;;68.25;50.25;;;;;;;;4883392;29;44741;-86
2021/11/25 13:43:39;;;;;;;;;;;;;;;;;;;;;
2021/11/25 13:46:07;;;;;;;;;59.50;48.50;;;;;;;;4880779;29;75163;-85
2021/11/25 13:48:36;;;;;;;;;62.25;51.00;;;;;;;;4884542;29;45401;-83
2021/11/25 13:51:10;;;;;;;;;66.25;52.50;;;;;;;;4878931;29;45391;-83
2021/11/25 13:53:39;;;;;;;;;56.00;44.25;;;;;;;;4865184;29;45476;-84
2021/11/25 13:59:21;;;;;;;;;;;;;;;;;;;;;
2021/11/25 14:04:59;;;;;;;;;63.00;49.75;;;;;;;;4879809;29;44848;-82
2021/11/25 14:07:31;;;;;;;;;58.50;46.25;;;;;;;;4878409;29;46449;-83
2021/11/25 14:13:03;;;;;;;;;58.25;48.50;;;;;;;;4878269;29;45439;-84
2021/11/25 14:15:30;;;;;;;;;55.00;46.75;;;;;;;;4878719;29;44919;-83
2021/11/25 14:18:34;;;;;;;;;50.67;43.67;;;;;;;;4883194;29;46138;-85
2021/11/25 14:24:13;;;;;;;;;60.33;48.00;;;;;;;;4831675;29;44838;-86
2021/11/25 14:30:08;;;;;;;;;64.50;48.00;;;;;;;;4826125;29;45449;-86
2021/11/25 14:32:44;;;;;;;;;53.00;43.67;;;;;;;;4871771;29;44738;-84
2021/11/25 14:35:27;;;;;;;;;66.50;50.75;;;;;;;;4864965;29;45391;-85
2021/11/25 14:37:53;;;;;;;;;59.50;47.25;;;;;;;;4876766;29;45707;-84
2021/11/25 14:43:23;;;;;;;;;56.25;46.50;;;;;;;;4879700;29;45491;-84
2021/11/25 14:45:53;;;;;;;;;69.00;51.00;;;;;;;;4876108;29;45354;-81
2021/11/25 14:48:28;;;;;;;;;65.50;47.00;;;;;;;;4867760;29;45508;-83
2021/11/25 14:51:17;;;;;;;;;62.75;49.75;;;;;;;;4883201;29;46396;-84
2021/11/25 14:53:47;;;;;;;;;57.50;47.25;;;;;;;;4913945;29;45539;-83
2021/11/25 14:56:24;;;;;;;;;;;;;;;;;;;;;
2021/11/25 14:58:57;;;;;;;;;61.25;49.25;;;;;;;;4890393;29;65017;-83
2021/11/25 15:04:32;;;;;;;;;61.00;47.75;;;;;;;;4886414;29;44808;-83
2021/11/25 15:07:00;;;;;;;;;62.50;50.00;;;;;;;;4896870;29;44721;-83
2021/11/25 15:09:26;;;;;;;;;62.50;52.50;;;;;;;;4893022;29;45464;-82
2021/11/25 15:11:58;;;;;;;;;59.00;48.75;;;;;;;;4873521;29;46904;-83
2021/11/25 15:14:31;;;;;;;;;60.25;48.50;;;;;;;;4884177;29;45282;-84
2021/11/25 15:16:57;;;;;;;;;63.25;49.75;;;;;;;;4876486;29;46060;-84
2021/11/25 15:19:24;;;;;;;;;69.75;51.75;;;;;;;;4879594;29;45339;-83
2021/11/25 15:21:49;;;;;;;;;59.25;47.50;;;;;;;;4854363;29;45526;-83
2021/11/25 15:24:15;;;;;;;;;61.25;50.50;;;;;;;;4866873;29;44897;-83
2021/11/25 15:26:42;;;;;;;;;64.00;47.75;;;;;;;;4861410;29;45365;-85
2021/11/25 15:29:08;;;;;;;;;53.50;44.00;;;;;;;;4864927;29;44924;-84
2021/11/25 15:31:35;;;;;;;;;63.00;50.25;;;;;;;;4875994;29;45487;-85
2021/11/25 15:34:01;;;;;;;;;65.25;48.75;;;;;;;;4858836;29;44883;-84
2021/11/25 15:36:41;;;;;;;;;58.75;47.25;;;;;;;;4873907;29;45652;-83
2021/11/25 15:39:12;;;;;;;;;61.75;44.75;;;;;;;;4852344;29;45628;-84
2021/11/25 15:41:52;;;;;;;;;63.00;49.00;;;;;;;;4862975;29;48658;-84
2021/11/25 15:44:17;;;;;;;;;56.25;43.00;;;;;;;;4869974;29;45675;-84
2021/11/25 15:46:44;;;;;;;;;57.50;46.50;;;;;;;;4874589;29;45544;-85
2021/11/25 15:49:14;;;;;;;;;50.50;42.25;;;;;;;;4878834;29;45059;-84
2021/11/25 15:51:50;;;;;;;;;60.25;47.50;;;;;;;;4871976;29;47322;-85
2021/11/25 15:54:16;;;;;;;;;59.33;45.67;;;;;;;;4862266;29;45437;-84
2021/11/25 15:56:42;;;;;;;;;61.25;46.50;;;;;;;;4838449;29;45547;-84
2021/11/25 15:59:14;;;;;;;;;61.67;47.67;;;;;;;;4855434;29;44891;-83
2021/11/25 16:02:13;;;;;;;;;55.33;45.00;;;;;;;;4842163;29;45469;-84
2021/11/25 16:04:39;;;;;;;;;60.00;48.75;;;;;;;;4835836;29;45515;-83
2021/11/25 16:07:08;;;;;;;;;56.75;46.00;;;;;;;;4876511;29;45500;-85
2021/11/25 16:09:35;;;;;;;;;57.75;48.00;;;;;;;;4862094;29;45495;-86
2021/11/25 16:12:04;;;;;;;;;63.25;47.00;;;;;;;;4862005;29;48209;-86
2021/11/25 16:14:42;;;;;;;;;;;;;;;;;;;;;
2021/11/25 16:17:25;;;;;;;;;;;;;;;;;;;;;
2021/11/25 16:19:53;;;;;;;;;57.00;48.00;;;;;;;;4881227;29;64956;-86
2021/11/25 16:22:23;;;;;;;;;64.75;53.25;;;;;;;;4880573;29;47200;-86
2021/11/25 16:27:40;;;;;;;;;62.25;49.00;;;;;;;;4866694;29;45334;-86
2021/11/25 16:30:17;;;;;;;;;63.25;49.25;;;;;;;;4875774;29;44891;-86
2021/11/25 16:32:46;;;;;;;;;64.25;52.25;;;;;;;;4864839;29;45310;-86
2021/11/25 16:35:26;;;;;;;;;49.75;42.00;;;;;;;;4876993;29;45421;-85
2021/11/25 16:37:51;;;;;;;;;60.50;46.75;;;;;;;;4856367;29;45488;-86
2021/11/25 16:40:20;;;;;;;;;65.50;51.75;;;;;;;;4857736;29;45555;-86
2021/11/25 16:42:45;;;;;;;;;60.75;47.50;;;;;;;;4862612;29;48052;-86
2021/11/25 16:45:16;;;;;;;;;61.50;51.25;;;;;;;;4828190;29;45677;-86
2021/11/25 16:50:56;;;;;;;;;58.00;48.75;;;;;;;;4877329;29;44876;-85
2021/11/25 16:53:46;;;;;;;;;62.00;49.50;;;;;;;;4890025;29;47920;-85
2021/11/25 16:56:20;;;;;;;;;62.50;47.00;;;;;;;;4879243;29;45381;-85
2021/11/25 16:58:56;;;;;;;;;58.00;46.75;;;;;;;;4874059;29;45431;-84
2021/11/25 17:01:27;;;;;;;;;49.67;40.33;;;;;;;;4879725;29;45286;-85
2021/11/25 17:03:55;;;;;;;;;54.25;46.00;;;;;;;;4872823;29;45592;-84
2021/11/25 17:06:30;;;;;;;;;45.00;37.00;;;;;;;;4858808;29;44840;-83
2021/11/25 17:08:57;;;;;;;;;47.67;41.33;;;;;;;;4859086;29;44821;-84
2021/11/25 17:11:22;;;;;;;;;47.67;39.67;;;;;;;;4876093;29;44774;-84
2021/11/25 17:13:48;;;;;;;;;49.33;39.00;;;;;;;;4875829;29;45152;-86
2021/11/25 17:16:17;;;;;;;;;34.33;32.33;;;;;;;;4872568;29;45279;-84
2021/11/25 17:18:43;;;;;;;;;31.00;26.00;;;;;;;;4873148;29;45889;-85
2021/11/25 17:21:18;;;;;;;;;37.00;32.00;;;;;;;;4874864;29;45526;-84
2021/11/25 17:23:43;;;;;;;;;24.00;23.00;;;;;;;;4884460;29;45598;-84
2021/11/25 17:26:46;;;;;;;;;32.00;26.67;;;;;;;;4875607;29;45473;-85
2021/11/25 17:29:16;;;;;;;;;29.33;27.00;;;;;;;;4869929;29;44830;-85
2021/11/25 17:31:41;;;;;;;;;31.33;28.33;;;;;;;;4876191;29;45479;-85
2021/11/25 17:34:07;;;;;;;;;36.33;30.33;;;;;;;;4975573;23;47571;-85
2021/11/25 17:36:34;;;;;;;;;40.33;37.00;;;;;;;;4920989;28;45820;-85
2021/11/25 17:38:59;;;;;;;;;34.00;31.67;;;;;;;;4916176;28;45382;-85
2021/11/25 17:41:26;;;;;;;;;39.67;35.33;;;;;;;;4911158;28;45346;-84
2021/11/25 17:43:53;;;;;;;;;41.67;32.33;;;;;;;;4917937;28;47198;-85
2021/11/25 17:46:18;;;;;;;;;31.67;29.67;;;;;;;;4911016;28;45457;-83
2021/11/25 17:48:45;;;;;;;;;40.33;34.67;;;;;;;;4901712;28;44803;-84
2021/11/25 17:51:16;;;;;;;;;44.67;34.67;;;;;;;;4901647;28;45367;-84
2021/11/25 17:53:42;;;;;;;;;40.00;33.67;;;;;;;;4900069;29;45142;-84
2021/11/25 17:56:46;;;;;;;;;38.33;30.33;;;;;;;;4901218;28;45428;-84
2021/11/25 17:59:13;;;;;;;;;28.00;28.00;;;;;;;;4916719;28;44804;-84
2021/11/25 18:01:40;;;;;;;;;31.00;30.67;;;;;;;;4917123;28;44842;-85
2021/11/25 18:04:05;;;;;;;;;29.67;27.33;;;;;;;;4915838;29;45380;-85
2021/11/25 18:06:30;;;;;;;;;36.67;32.33;;;;;;;;4897862;29;45411;-85
2021/11/25 18:08:55;;;;;;;;;27.67;27.00;;;;;;;;4915815;29;45381;-85
2021/11/25 18:11:21;;;;;;;;;29.00;28.00;;;;;;;;4898474;29;45581;-86
2021/11/25 18:13:46;;;;;;;;;30.33;26.67;;;;;;;;4914049;29;45352;-85
2021/11/25 18:16:12;;;;;;;;;22.33;22.33;;;;;;;;4913036;29;44648;-85
2021/11/25 18:18:41;;;;;;;;;19.00;19.00;;;;;;;;4913306;28;45401;-85
2021/11/25 18:21:07;;;;;;;;;16.67;15.67;;;;;;;;4886525;29;45350;-85
2021/11/25 18:23:38;;;;;;;;;18.00;15.67;;;;;;;;4916585;28;45057;-86
2021/11/25 18:26:16;;;;;;;;;15.00;9.33;;;;;;;;4918007;28;44694;-85
2021/11/25 18:28:53;;;;;;;;;18.33;17.33;;;;;;;;4903294;28;44922;-85
2021/11/25 18:31:43;;;;;;;;;13.00;12.00;;;;;;;;4904186;28;45255;-85
2021/11/25 18:34:10;;;;;;;;;12.67;11.33;;;;;;;;4889944;29;45364;-86
2021/11/25 18:36:46;;;;;;;;;10.33;10.33;;;;;;;;4882562;29;45556;-86
2021/11/25 18:39:11;;;;;;;;;12.67;12.67;;;;;;;;4883070;29;45527;-85
2021/11/25 18:41:37;;;;;;;;;12.00;12.00;;;;;;;;4882393;29;45378;-85